EDT,Max TemperatureF,Mean TemperatureF,Min TemperatureF,Max Dew PointF,MeanDew PointF,Min DewpointF,Max Humidity, Mean Humidity, Min Humidity, Max Sea Level PressureIn, Mean Sea Level PressureIn, Min Sea Level PressureIn, Max VisibilityMiles, Mean VisibilityMiles, Min VisibilityMiles, Max Wind SpeedMPH, Mean Wind SpeedMPH, Max Gust SpeedMPH,PrecipitationIn, CloudCover, Events, WindDirDegrees
2013-5-1,75,54,33,34,28,23,81,40,14,30.48,30.43,30.36,10,10,10,12,2,16,0.00,0,,182
2013-5-2,80,58,37,43,34,25,87,47,18,30.50,30.43,30.31,10,10,10,17,2,25,0.00,3,,114
2013-5-3,66,50,35,41,35,28,81,55,35,30.55,30.46,30.38,10,10,8,10,2,20,0.00,0,,76
2013-5-4,71,53,35,45,34,21,93,54,22,30.39,30.32,30.24,10,9,0,12,2,20,0.00,0,,126
2013-5-5,71,52,32,34,30,19,87,51,14,30.34,30.28,30.20,10,10,5,9,2,,0.00,0,,181
2013-5-6,73,52,32,41,31,18,93,52,12,30.30,30.22,30.12,10,9,0,10,2,,0.00,0,,204
2013-5-7,80,60,39,52,41,28,87,56,15,30.20,30.15,30.07,10,10,1,14,2,17,0.00,0,,200
2013-5-8,73,60,48,59,53,45,93,75,50,30.21,30.14,30.05,10,8,0,12,2,22,0.11,5,,156
2013-5-9,68,62,53,57,54,52,94,82,60,30.05,29.97,29.89,10,7,0,7,1,,0.68,6,,201
2013-5-10,75,64,53,55,52,48,94,70,41,29.99,29.94,29.90,10,7,0,8,2,,0.00,4,,200
2013-5-11,66,62,57,61,56,52,88,79,64,29.90,29.77,29.70,10,9,3,16,7,21,0.63,6,,190
2013-5-12,64,55,42,57,41,25,94,60,29,29.83,29.69,29.62,10,9,2,18,3,28,0.01,5,,291
2013-5-13,51,45,39,32,26,23,66,47,35,30.07,29.96,29.84,10,10,10,14,7,23,0.00,6,,261
2013-5-14,53,43,33,34,29,25,87,57,33,30.09,30.05,30.01,10,10,10,14,3,22,0.00,5,,335
2013-5-15,62,45,28,48,37,25,93,72,31,30.08,29.90,29.68,10,8,1,20,4,30,0.01,4,,190
2013-5-16,75,57,39,48,37,27,93,56,19,29.85,29.71,29.66,10,7,0,21,5,34,0.00,3,,283
2013-5-17,57,50,42,39,38,36,81,69,51,30.24,30.06,29.86,10,10,10,21,6,28,0.00,1,,344
2013-5-18,62,48,35,45,38,32,93,74,52,30.34,30.27,30.22,10,10,2,9,2,18,0.00,4,,194
2013-5-19,,,,,,,,,,30.34,30.29,30.21,10,9,0,13,4,20,0.01,4,,201
2013-5-20,64,62,60,55,55,54,77,75,73,30.19,30.04,29.97,10,8,3,10,3,16,0.00,5,,271
2013-5-21,,,,,,,,,,30.05,29.93,29.84,10,8,0,16,3,25,0.31,4,Thunderstorm,67
2013-5-22,,,,,,,,,,29.99,29.91,29.86,10,9,2,12,4,,0.24,7,Thunderstorm,172
2013-5-23,,,,,,,,,,29.90,29.85,29.77,10,8,3,15,4,21,0.00,8,Thunderstorm,181
2013-5-24,,,,,,,,,,29.90,29.78,29.65,10,10,5,18,8,25,0.00,8,,321
2013-5-25,,,,,,,,,,29.88,29.83,29.79,10,9,5,28,12,34,0.00,8,,355
2013-5-26,,,,,,,,,,30.11,29.92,29.77,10,10,10,23,8,33,0.00,6,,338
2013-5-27,,,,,,,,,,30.20,30.14,30.09,10,8,0,18,3,26,0.00,2,,321
2013-5-28,,,,,,,,,,30.26,30.20,30.14,10,9,2,12,2,17,0.00,1,,205
2013-5-29,,,,,,,,,,30.17,30.07,29.99,10,9,3,10,2,,0.00,7,Thunderstorm,207
2013-5-30,86,75,64,70,63,61,88,60,43,30.11,30.07,30.03,10,8,0,12,3,16,0.00,3,,255
2013-5-31,91,76,60,66,61,55,88,65,29,30.13,30.04,29.94,10,7,0,14,2,18,0.00,2,,220